createdAt,value
2022-12-09T00:01:19.910Z,3.76
2022-12-09T00:03:47.594Z,3.78
2022-12-09T00:06:23.864Z,3.75
2022-12-09T00:08:51.663Z,3.75
2022-12-09T00:11:19.976Z,3.74
2022-12-09T00:13:51.455Z,3.74
2022-12-09T00:16:19.153Z,3.73
2022-12-09T00:18:45.992Z,3.69
2022-12-09T00:21:12.870Z,3.65
2022-12-09T00:23:39.868Z,3.53
2022-12-09T00:26:06.908Z,3.65
2022-12-09T00:28:33.949Z,3.74
2022-12-09T00:31:02.398Z,3.60
2022-12-09T00:33:33.595Z,3.71
2022-12-09T00:36:12.708Z,3.73
2022-12-09T00:38:39.359Z,3.72
2022-12-09T00:41:06.466Z,3.78
2022-12-09T00:43:34.227Z,3.83
2022-12-09T00:46:02.121Z,3.93
2022-12-09T00:48:29.355Z,3.78
2022-12-09T00:50:56.467Z,3.82
2022-12-09T00:53:23.518Z,3.77
2022-12-09T00:55:50.496Z,3.80
2022-12-09T00:58:17.202Z,3.77
2022-12-09T01:00:56.210Z,3.82
2022-12-09T01:03:24.197Z,3.82
2022-12-09T01:05:51.112Z,3.58
2022-12-09T01:08:18.081Z,3.68
2022-12-09T01:10:45.496Z,3.76
2022-12-09T01:13:14.446Z,3.80
2022-12-09T01:15:41.666Z,3.73
2022-12-09T01:18:08.544Z,3.72
2022-12-09T01:20:35.819Z,3.82
2022-12-09T01:23:14.932Z,3.75
2022-12-09T01:25:41.659Z,3.73
2022-12-09T01:28:10.555Z,3.65
2022-12-09T01:30:37.185Z,3.53
2022-12-09T01:33:05.394Z,3.67
2022-12-09T01:35:32.207Z,3.66
2022-12-09T01:37:58.828Z,3.57
2022-12-09T01:40:25.751Z,3.58
2022-12-09T01:42:53.160Z,3.46
2022-12-09T01:45:19.955Z,3.59
2022-12-09T01:47:56.647Z,3.61
2022-12-09T01:50:26.572Z,3.56
2022-12-09T01:53:31.778Z,3.53
2022-12-09T01:56:03.288Z,3.45
2022-12-09T01:58:30.379Z,3.48
2022-12-09T02:00:57.142Z,3.49
2022-12-09T02:03:24.120Z,3.43
2022-12-09T02:05:51.792Z,3.38
2022-12-09T02:08:19.840Z,3.08
2022-12-09T02:11:23.603Z,3.24
2022-12-09T02:14:10.757Z,3.22
2022-12-09T02:17:00.788Z,3.20
2022-12-09T02:19:43.124Z,3.15
2022-12-09T02:22:16.265Z,2.98
2022-12-09T02:24:59.066Z,3.00
2022-12-09T02:27:53.418Z,2.91
2022-12-09T02:30:29.079Z,2.98
2022-12-09T02:33:05.268Z,2.95
2022-12-09T02:35:45.744Z,2.92
2022-12-09T02:38:20.321Z,2.95
2022-12-09T02:41:10.151Z,3.07
2022-12-09T02:43:50.137Z,2.98
2022-12-09T02:46:23.892Z,3.05
2022-12-09T02:48:56.701Z,2.99
2022-12-09T02:51:26.372Z,2.99
2022-12-09T02:53:55.716Z,3.18
2022-12-09T02:56:24.711Z,3.08
2022-12-09T02:58:51.621Z,3.14
2022-12-09T03:01:45.653Z,3.08
2022-12-09T03:04:18.872Z,3.21
2022-12-09T03:06:52.292Z,3.23
2022-12-09T03:09:36.619Z,2.94
2022-12-09T03:12:08.903Z,2.84
2022-12-09T03:15:02.671Z,2.78
2022-12-09T03:17:36.996Z,3.06
2022-12-09T03:20:08.909Z,2.77
2022-12-09T03:22:37.514Z,2.92
2022-12-09T03:25:24.749Z,2.93
2022-12-09T03:28:02.105Z,3.04
2022-12-09T03:30:33.899Z,2.91
2022-12-09T03:33:01.613Z,2.98
2022-12-09T03:35:42.550Z,2.74
2022-12-09T03:38:14.242Z,2.92
2022-12-09T03:40:43.451Z,2.91
2022-12-09T03:43:16.299Z,2.93
2022-12-09T03:45:43.746Z,2.92
2022-12-09T03:48:11.559Z,3.02
2022-12-09T03:50:49.486Z,3.07
2022-12-09T03:53:23.913Z,2.91
2022-12-09T03:56:15.361Z,2.97
2022-12-09T03:58:45.225Z,3.06
2022-12-09T04:01:12.947Z,2.97
2022-12-09T04:03:39.909Z,2.95
2022-12-09T04:06:06.926Z,3.00
2022-12-09T04:08:33.804Z,2.88
2022-12-09T04:11:00.900Z,2.75
2022-12-09T04:13:27.599Z,2.90
2022-12-09T04:15:54.262Z,2.87
2022-12-09T04:18:20.917Z,3.00
2022-12-09T04:20:47.707Z,2.86
2022-12-09T04:23:14.556Z,2.90
2022-12-09T04:25:41.188Z,2.91
2022-12-09T04:28:08.167Z,2.89
2022-12-09T04:30:34.986Z,3.01
2022-12-09T04:33:02.326Z,2.73
2022-12-09T04:35:30.311Z,2.70
2022-12-09T04:37:57.223Z,2.76
2022-12-09T04:40:24.815Z,2.81
2022-12-09T04:42:51.939Z,3.00
2022-12-09T04:45:18.719Z,2.80
2022-12-09T04:47:45.712Z,2.83
2022-12-09T04:50:13.536Z,2.73
2022-12-09T04:52:40.915Z,2.73
2022-12-09T04:55:08.301Z,2.81
2022-12-09T04:57:35.322Z,2.95
2022-12-09T05:00:05.468Z,2.68
2022-12-09T05:02:32.858Z,2.66
2022-12-09T05:05:01.928Z,2.53
2022-12-09T05:07:31.233Z,2.77
2022-12-09T05:09:58.864Z,2.76
2022-12-09T05:12:25.860Z,2.82
2022-12-09T05:14:52.886Z,2.89
2022-12-09T05:17:19.654Z,2.71
2022-12-09T05:19:46.866Z,2.78
2022-12-09T05:22:17.312Z,2.81
2022-12-09T05:24:45.114Z,2.90
2022-12-09T05:27:12.076Z,2.92
2022-12-09T05:29:39.070Z,2.94
2022-12-09T05:32:06.447Z,2.66
2022-12-09T05:34:33.659Z,2.79
2022-12-09T05:37:03.659Z,2.80
2022-12-09T05:39:30.407Z,2.88
2022-12-09T05:41:57.101Z,3.01
2022-12-09T05:44:25.048Z,3.04
2022-12-09T05:46:52.108Z,3.01
2022-12-09T05:49:18.895Z,3.05
2022-12-09T05:51:46.063Z,2.97
2022-12-09T05:54:15.918Z,2.88
2022-12-09T05:56:47.857Z,2.79
2022-12-09T05:59:15.709Z,2.62
2022-12-09T06:01:43.312Z,2.65
2022-12-09T06:04:10.327Z,2.76
2022-12-09T06:06:38.398Z,2.89
2022-12-09T06:09:11.500Z,2.79
2022-12-09T06:11:40.218Z,2.91
2022-12-09T06:14:08.935Z,2.96
2022-12-09T06:16:36.569Z,2.84
2022-12-09T06:19:04.709Z,2.98
2022-12-09T06:21:31.853Z,3.02
2022-12-09T06:23:59.260Z,3.12
2022-12-09T06:26:29.926Z,3.03
2022-12-09T06:29:15.209Z,2.97
2022-12-09T06:31:42.247Z,3.03
2022-12-09T06:34:09.086Z,3.01
2022-12-09T06:37:09.942Z,3.05
2022-12-09T06:39:39.091Z,2.95
2022-12-09T06:42:13.272Z,2.88
2022-12-09T06:44:40.395Z,2.99
2022-12-09T06:47:08.465Z,2.79
2022-12-09T06:49:35.443Z,2.77
2022-12-09T06:52:02.504Z,2.72
2022-12-09T06:54:29.654Z,2.80
2022-12-09T06:56:56.335Z,2.70
2022-12-09T06:59:23.562Z,2.64
2022-12-09T07:01:50.867Z,2.60
2022-12-09T07:04:21.510Z,2.68
2022-12-09T07:06:48.896Z,2.77
2022-12-09T07:09:19.928Z,2.74
2022-12-09T07:11:48.095Z,2.61
2022-12-09T07:14:16.876Z,2.60
2022-12-09T07:16:43.761Z,2.57
2022-12-09T07:19:24.273Z,2.62
2022-12-09T07:21:52.328Z,2.61
2022-12-09T07:24:20.617Z,2.66
2022-12-09T07:26:50.274Z,2.72
2022-12-09T07:29:23.007Z,2.53
2022-12-09T07:31:49.945Z,2.14
2022-12-09T07:34:17.623Z,2.23
2022-12-09T07:36:47.559Z,2.37
2022-12-09T07:39:17.812Z,2.43
2022-12-09T07:41:45.463Z,2.10
2022-12-09T07:47:18.879Z,1.77
2022-12-09T07:49:46.030Z,1.80
2022-12-09T07:52:13.488Z,1.87
2022-12-09T07:54:40.636Z,1.80
2022-12-09T07:57:10.043Z,1.92
2022-12-09T07:59:36.724Z,1.73
2022-12-09T08:02:06.488Z,1.80
2022-12-09T08:04:35.540Z,1.92
2022-12-09T08:07:13.982Z,1.78
2022-12-09T08:09:41.324Z,1.70
2022-12-09T08:12:08.499Z,1.79
2022-12-09T08:14:35.384Z,1.97
2022-12-09T08:17:02.112Z,2.00
2022-12-09T08:19:32.390Z,2.15
2022-12-09T08:22:00.365Z,2.23
2022-12-09T08:24:27.415Z,2.35
2022-12-09T08:26:54.253Z,2.34
2022-12-09T08:29:21.530Z,2.32
2022-12-09T08:31:49.074Z,2.14
2022-12-09T08:34:16.126Z,1.92
2022-12-09T08:36:43.690Z,1.99
2022-12-09T08:39:13.207Z,2.02
2022-12-09T08:41:40.455Z,2.17
2022-12-09T08:44:14.468Z,2.31
2022-12-09T08:46:47.339Z,2.39
2022-12-09T08:49:18.915Z,2.46
2022-12-09T08:51:48.297Z,2.36
2022-12-09T08:54:18.981Z,2.31
2022-12-09T08:56:53.005Z,2.12
2022-12-09T08:59:20.124Z,2.05
2022-12-09T09:01:47.699Z,2.09
2022-12-09T09:04:18.265Z,2.25
2022-12-09T09:07:05.864Z,2.28
2022-12-09T09:09:38.150Z,2.43
2022-12-09T09:12:06.086Z,2.49
2022-12-09T09:14:33.495Z,2.41
2022-12-09T09:17:00.409Z,2.51
2022-12-09T09:19:27.927Z,2.57
2022-12-09T09:21:55.530Z,2.52
2022-12-09T09:24:25.274Z,2.47
2022-12-09T09:26:53.903Z,2.66
2022-12-09T09:29:22.943Z,2.61
2022-12-09T09:31:54.526Z,2.71
2022-12-09T09:34:22.579Z,2.72
2022-12-09T09:36:51.181Z,2.64
2022-12-09T09:39:19.342Z,2.59
2022-12-09T09:42:07.851Z,2.67
2022-12-09T09:44:42.580Z,2.68
2022-12-09T09:47:55.975Z,2.67
2022-12-09T09:50:36.128Z,2.76
2022-12-09T09:53:16.237Z,2.73
2022-12-09T09:55:49.915Z,2.78
2022-12-09T09:58:25.506Z,2.81
2022-12-09T10:01:02.709Z,2.75
2022-12-09T10:03:52.488Z,2.63
2022-12-09T10:06:41.449Z,2.44
2022-12-09T10:09:21.867Z,2.64
2022-12-09T10:12:14.356Z,2.70
2022-12-09T10:14:58.302Z,2.74
2022-12-09T10:17:35.201Z,2.84
2022-12-09T10:20:18.562Z,2.93
2022-12-09T10:23:11.073Z,2.96
2022-12-09T10:25:57.528Z,3.01
2022-12-09T10:28:36.615Z,3.08
2022-12-09T10:31:06.930Z,3.06
2022-12-09T10:33:39.163Z,2.64
2022-12-09T10:36:08.452Z,2.82
2022-12-09T10:39:00.100Z,3.04
2022-12-09T10:42:02.899Z,3.10
2022-12-09T10:44:30.342Z,3.22
2022-12-09T10:47:05.508Z,3.16
2022-12-09T10:49:34.882Z,3.37
2022-12-09T10:52:02.426Z,3.22
2022-12-09T10:54:40.047Z,3.06
2022-12-09T10:57:12.855Z,3.25
2022-12-09T10:59:42.501Z,3.08
2022-12-09T11:02:09.931Z,3.05
2022-12-09T11:04:42.924Z,3.35
2022-12-09T11:07:13.438Z,3.24
2022-12-09T11:10:07.673Z,3.34
2022-12-09T11:12:41.410Z,3.36
2022-12-09T11:15:11.894Z,3.45
2022-12-09T11:17:55.863Z,3.38
2022-12-09T11:20:42.154Z,3.54
2022-12-09T11:23:11.639Z,3.46
2022-12-09T11:26:05.961Z,3.69
2022-12-09T11:28:39.508Z,3.65
2022-12-09T11:31:33.388Z,3.81
2022-12-09T11:34:13.743Z,3.87
2022-12-09T11:36:46.861Z,4.10
2022-12-09T11:39:28.078Z,4.11
2022-12-09T11:42:17.001Z,4.31
2022-12-09T11:45:02.906Z,4.41
2022-12-09T11:47:50.283Z,4.26
2022-12-09T11:50:32.276Z,4.22
2022-12-09T11:53:11.217Z,4.38
2022-12-09T11:56:03.955Z,4.39
2022-12-09T11:58:50.639Z,4.47
2022-12-09T12:01:42.699Z,4.56
2022-12-09T12:04:12.427Z,4.54
2022-12-09T12:06:58.712Z,4.49
2022-12-09T12:09:49.237Z,4.64
2022-12-09T12:12:38.628Z,4.57
2022-12-09T12:15:44.188Z,4.49
2022-12-09T12:18:22.878Z,4.16
2022-12-09T12:21:15.293Z,4.25
2022-12-09T12:24:03.327Z,3.99
2022-12-09T12:26:40.699Z,3.89
2022-12-09T12:29:16.853Z,4.34
2022-12-09T12:32:36.118Z,4.44
2022-12-09T12:35:27.092Z,4.42
2022-12-09T12:38:24.770Z,4.01
2022-12-09T12:41:00.645Z,3.96
2022-12-09T12:43:48.562Z,3.89
2022-12-09T12:46:30.169Z,3.93
2022-12-09T12:49:15.748Z,3.82
2022-12-09T12:52:12.718Z,3.87
2022-12-09T12:55:12.558Z,3.92
2022-12-09T12:57:53.193Z,3.91
2022-12-09T13:00:26.256Z,4.09
2022-12-09T13:03:21.059Z,4.03
2022-12-09T13:05:51.322Z,4.07
2022-12-09T13:08:30.648Z,3.83
2022-12-09T13:11:02.216Z,3.99
2022-12-09T13:13:35.027Z,4.03
2022-12-09T13:16:27.834Z,4.20
2022-12-09T13:19:09.393Z,4.03
2022-12-09T13:21:36.651Z,4.26
2022-12-09T13:24:19.646Z,4.32
2022-12-09T13:26:52.362Z,4.39
2022-12-09T13:29:38.048Z,4.13
2022-12-09T13:32:32.462Z,3.72
2022-12-09T13:35:11.040Z,3.86
2022-12-09T13:37:37.843Z,4.17
2022-12-09T13:40:27.722Z,4.07
2022-12-09T13:43:03.994Z,4.16
2022-12-09T13:45:35.107Z,3.93
2022-12-09T13:48:10.607Z,4.03
2022-12-09T13:50:49.182Z,3.94
2022-12-09T13:53:21.851Z,4.07
2022-12-09T13:55:56.444Z,4.14
2022-12-09T13:58:53.910Z,4.22
2022-12-09T14:01:32.522Z,4.18
2022-12-09T14:04:16.676Z,4.24
2022-12-09T14:06:46.233Z,4.37
2022-12-09T14:09:18.636Z,4.29
2022-12-09T14:11:50.690Z,4.36
2022-12-09T14:14:23.271Z,4.45
2022-12-09T14:16:51.821Z,4.14
2022-12-09T14:19:24.441Z,4.24
2022-12-09T14:22:18.890Z,4.18
2022-12-09T14:24:53.728Z,4.16
2022-12-09T14:27:21.052Z,4.30
2022-12-09T14:30:28.565Z,4.34
2022-12-09T14:32:57.027Z,4.36
2022-12-09T14:35:41.843Z,4.34
2022-12-09T14:38:28.794Z,4.29
2022-12-09T14:41:06.682Z,4.28
2022-12-09T14:43:39.575Z,4.12
2022-12-09T14:46:39.280Z,4.15
2022-12-09T14:49:29.386Z,4.09
2022-12-09T14:52:11.161Z,3.96
2022-12-09T14:54:48.180Z,3.86
2022-12-09T14:57:27.228Z,3.90
2022-12-09T14:59:59.510Z,4.00
2022-12-09T15:02:31.371Z,3.62
2022-12-09T15:05:00.534Z,3.67
2022-12-09T15:07:36.232Z,3.62
2022-12-09T15:10:08.523Z,3.46
2022-12-09T15:12:43.887Z,3.72
2022-12-09T15:15:10.519Z,3.80
2022-12-09T15:17:57.338Z,3.76
2022-12-09T15:20:37.619Z,3.87
2022-12-09T15:23:25.370Z,3.86
2022-12-09T15:25:54.770Z,3.90
2022-12-09T15:28:27.042Z,3.42
2022-12-09T15:30:57.144Z,3.56
2022-12-09T15:33:24.718Z,3.61
2022-12-09T15:35:51.242Z,3.37
2022-12-09T15:38:18.301Z,3.04
2022-12-09T15:44:02.432Z,3.39
2022-12-09T15:46:35.458Z,3.58
2022-12-09T15:49:04.241Z,3.59
2022-12-09T15:51:33.673Z,3.68
2022-12-09T15:54:06.852Z,3.75
2022-12-09T15:56:44.700Z,3.87
2022-12-09T15:59:42.113Z,3.93
2022-12-09T16:02:27.310Z,3.56
2022-12-09T16:04:58.310Z,3.41
2022-12-09T16:07:25.243Z,3.39
2022-12-09T16:10:16.300Z,3.27
2022-12-09T16:12:43.987Z,3.22
2022-12-09T16:15:13.435Z,3.32
2022-12-09T16:18:10.529Z,3.50
2022-12-09T16:20:41.358Z,3.49
2022-12-09T16:23:27.463Z,3.52
2022-12-09T16:26:06.315Z,3.46
2022-12-09T16:44:26.646Z,3.22
2022-12-09T16:47:16.663Z,3.24
2022-12-09T16:49:47.772Z,3.21
2022-12-09T16:52:39.685Z,3.23
2022-12-09T16:55:51.190Z,3.25
2022-12-09T16:58:24.020Z,3.12
2022-12-09T17:00:50.976Z,2.98
2022-12-09T17:03:43.494Z,2.81
2022-12-09T17:06:14.876Z,2.77
2022-12-09T17:08:41.641Z,2.79
2022-12-09T17:11:08.683Z,2.63
2022-12-09T17:14:00.656Z,2.63
2022-12-09T17:16:27.476Z,2.44
2022-12-09T17:18:54.281Z,2.34
2022-12-09T17:21:21.276Z,2.30
2022-12-09T17:23:48.349Z,2.29
2022-12-09T17:26:17.547Z,2.32
2022-12-09T17:28:47.460Z,2.32
2022-12-09T17:31:23.790Z,2.28
2022-12-09T17:33:51.352Z,2.16
2022-12-09T17:36:18.908Z,2.16
2022-12-09T17:38:45.866Z,2.05
2022-12-09T17:41:20.471Z,2.04
2022-12-09T17:43:48.346Z,1.98
2022-12-09T17:46:33.873Z,1.93
2022-12-09T17:49:01.606Z,1.92
2022-12-09T17:51:35.401Z,1.95
2022-12-09T17:54:28.483Z,1.91
2022-12-09T18:00:16.625Z,2.00
2022-12-09T18:03:17.830Z,1.96
2022-12-09T18:05:48.923Z,1.73
2022-12-09T18:08:15.563Z,1.92
2022-12-09T18:10:44.204Z,2.00
2022-12-09T18:13:13.688Z,2.02
2022-12-09T18:15:40.285Z,1.94
2022-12-09T18:18:06.886Z,1.82
2022-12-09T18:20:33.868Z,1.93
2022-12-09T18:23:00.373Z,1.98
2022-12-09T18:25:27.042Z,2.06
2022-12-09T18:27:57.240Z,1.86
2022-12-09T18:33:40.654Z,1.79
2022-12-09T18:36:24.524Z,1.73
2022-12-09T18:39:05.496Z,1.85
2022-12-09T18:41:35.437Z,1.98
2022-12-09T18:47:56.134Z,2.25
2022-12-09T18:50:54.257Z,2.09
2022-12-09T18:53:40.932Z,2.20
2022-12-09T18:56:39.755Z,2.23
2022-12-09T18:59:34.194Z,2.34
2022-12-09T19:02:49.546Z,2.35
2022-12-09T21:24:19.982Z,1.78
2022-12-09T21:26:49.810Z,1.46
2022-12-09T21:29:38.487Z,1.52
2022-12-09T21:32:09.287Z,1.47
2022-12-09T21:34:48.872Z,1.31
2022-12-09T21:37:30.293Z,1.56
2022-12-09T21:40:12.206Z,1.33
2022-12-09T21:45:33.474Z,1.39
2022-12-09T21:48:07.775Z,1.23
2022-12-09T21:51:01.340Z,1.24
2022-12-09T21:53:46.780Z,1.15
2022-12-09T21:56:28.572Z,1.29
2022-12-09T21:59:00.497Z,1.06
2022-12-09T22:04:34.140Z,1.20
2022-12-09T22:09:45.761Z,1.07
2022-12-09T22:12:17.335Z,0.95
2022-12-09T22:14:56.686Z,1.04
2022-12-09T22:17:25.065Z,0.91
2022-12-09T22:20:33.396Z,0.94
2022-12-09T22:22:44.300Z,0.97
2022-12-09T22:25:27.963Z,0.96
2022-12-09T22:28:03.528Z,0.83
2022-12-09T22:30:52.067Z,0.86
2022-12-09T22:33:45.364Z,1.02
2022-12-09T22:36:15.269Z,0.87
2022-12-09T22:38:45.929Z,1.05
2022-12-09T22:41:20.887Z,0.93
2022-12-09T22:43:57.410Z,0.79
2022-12-09T22:46:31.692Z,0.85
2022-12-09T22:55:09.502Z,0.62
2022-12-09T22:57:40.675Z,0.60
2022-12-09T23:00:28.854Z,0.49
2022-12-09T23:03:03.337Z,0.56
2022-12-09T23:05:35.066Z,0.36
2022-12-09T23:08:02.326Z,0.35
2022-12-09T23:10:35.252Z,0.33
2022-12-09T23:13:05.919Z,0.34
2022-12-09T23:15:42.729Z,0.49
2022-12-09T23:18:10.122Z,0.49
2022-12-09T23:20:39.429Z,0.36
2022-12-09T23:23:06.412Z,0.61
2022-12-09T23:25:37.199Z,0.79
2022-12-09T23:28:04.825Z,0.62
2022-12-09T23:30:34.163Z,0.66
2022-12-09T23:33:01.037Z,0.59
2022-12-09T23:35:33.210Z,0.63
2022-12-09T23:38:05.814Z,0.64
2022-12-09T23:40:59.420Z,0.85
2022-12-09T23:46:23.878Z,0.88
2022-12-09T23:49:19.583Z,0.77
2022-12-09T23:51:46.771Z,0.83
2022-12-09T23:54:16.845Z,0.74
2022-12-09T23:56:56.289Z,0.81
2022-12-09T23:59:23.776Z,0.89
